sensor_id;sensor_type;location;lat;lon;timestamp;temperature;humidity
25718;DHT22;13574;52.040;5.692;2023-03-21T00:01:37;13.60;99.90
25718;DHT22;13574;52.040;5.692;2023-03-21T00:04:02;13.60;99.90
25718;DHT22;13574;52.040;5.692;2023-03-21T00:06:28;13.40;99.90
25718;DHT22;13574;52.040;5.692;2023-03-21T00:08:53;13.40;99.90
25718;DHT22;13574;52.040;5.692;2023-03-21T00:11:19;13.60;99.90
25718;DHT22;13574;52.040;5.692;2023-03-21T00:13:46;13.50;99.90
25718;DHT22;13574;52.040;5.692;2023-03-21T00:16:14;13.30;99.90
25718;DHT22;13574;52.040;5.692;2023-03-21T00:18:47;13.50;99.90
25718;DHT22;13574;52.040;5.692;2023-03-21T00:21:15;13.50;99.90
25718;DHT22;13574;52.040;5.692;2023-03-21T00:23:42;13.40;99.90
25718;DHT22;13574;52.040;5.692;2023-03-21T00:26:08;13.30;99.90
25718;DHT22;13574;52.040;5.692;2023-03-21T00:28:38;13.40;99.90
25718;DHT22;13574;52.040;5.692;2023-03-21T00:31:05;13.40;99.90
25718;DHT22;13574;52.040;5.692;2023-03-21T00:33:31;13.30;99.90
25718;DHT22;13574;52.040;5.692;2023-03-21T00:35:57;13.30;99.90
25718;DHT22;13574;52.040;5.692;2023-03-21T00:38:23;13.40;99.90
25718;DHT22;13574;52.040;5.692;2023-03-21T00:40:49;13.40;99.90
25718;DHT22;13574;52.040;5.692;2023-03-21T00:43:16;13.50;99.90
25718;DHT22;13574;52.040;5.692;2023-03-21T00:45:46;13.40;99.90
25718;DHT22;13574;52.040;5.692;2023-03-21T00:48:12;13.30;99.90
25718;DHT22;13574;52.040;5.692;2023-03-21T00:50:39;13.30;99.90
25718;DHT22;13574;52.040;5.692;2023-03-21T00:53:05;13.20;99.90
25718;DHT22;13574;52.040;5.692;2023-03-21T00:55:31;13.20;99.90
25718;DHT22;13574;52.040;5.692;2023-03-21T00:57:57;13.20;99.90
25718;DHT22;13574;52.040;5.692;2023-03-21T01:00:23;13.20;99.90
25718;DHT22;13574;52.040;5.692;2023-03-21T01:02:49;13.40;99.90
25718;DHT22;13574;52.040;5.692;2023-03-21T01:05:26;13.30;99.90
25718;DHT22;13574;52.040;5.692;2023-03-21T01:08:13;13.30;99.90
25718;DHT22;13574;52.040;5.692;2023-03-21T01:10:40;13.20;99.90
25718;DHT22;13574;52.040;5.692;2023-03-21T01:13:06;13.20;99.90
25718;DHT22;13574;52.040;5.692;2023-03-21T01:15:32;13.10;99.90
25718;DHT22;13574;52.040;5.692;2023-03-21T01:17:58;13.10;99.90
25718;DHT22;13574;52.040;5.692;2023-03-21T01:20:23;13.30;99.90
25718;DHT22;13574;52.040;5.692;2023-03-21T01:22:50;13.30;99.90
25718;DHT22;13574;52.040;5.692;2023-03-21T01:25:16;13.30;99.90
25718;DHT22;13574;52.040;5.692;2023-03-21T01:27:41;13.40;99.90
25718;DHT22;13574;52.040;5.692;2023-03-21T01:30:07;13.30;99.90
25718;DHT22;13574;52.040;5.692;2023-03-21T01:32:33;13.30;99.90
25718;DHT22;13574;52.040;5.692;2023-03-21T01:34:59;13.20;99.90
25718;DHT22;13574;52.040;5.692;2023-03-21T01:37:25;13.20;99.90
25718;DHT22;13574;52.040;5.692;2023-03-21T01:39:51;13.00;99.90
25718;DHT22;13574;52.040;5.692;2023-03-21T01:42:16;13.30;99.90
25718;DHT22;13574;52.040;5.692;2023-03-21T01:44:57;13.40;99.90
25718;DHT22;13574;52.040;5.692;2023-03-21T01:47:23;13.30;99.90
25718;DHT22;13574;52.040;5.692;2023-03-21T01:49:51;13.40;99.90
25718;DHT22;13574;52.040;5.692;2023-03-21T01:52:23;13.50;99.90
25718;DHT22;13574;52.040;5.692;2023-03-21T01:54:52;13.50;99.90
25718;DHT22;13574;52.040;5.692;2023-03-21T01:57:29;13.60;99.90
25718;DHT22;13574;52.040;5.692;2023-03-21T01:59:59;13.70;99.90
25718;DHT22;13574;52.040;5.692;2023-03-21T02:02:30;13.70;99.90
25718;DHT22;13574;52.040;5.692;2023-03-21T02:04:56;13.50;99.90
25718;DHT22;13574;52.040;5.692;2023-03-21T02:07:30;13.50;99.90
25718;DHT22;13574;52.040;5.692;2023-03-21T02:09:57;13.50;99.90
25718;DHT22;13574;52.040;5.692;2023-03-21T02:12:24;13.50;99.90
25718;DHT22;13574;52.040;5.692;2023-03-21T02:14:50;13.70;99.90
25718;DHT22;13574;52.040;5.692;2023-03-21T02:36:34;13.40;99.90
25718;DHT22;13574;52.040;5.692;2023-03-21T02:46:54;13.30;99.90
25718;DHT22;13574;52.040;5.692;2023-03-21T02:49:29;13.30;99.90
25718;DHT22;13574;52.040;5.692;2023-03-21T02:51:58;13.30;99.90
25718;DHT22;13574;52.040;5.692;2023-03-21T02:54:26;13.40;99.90
25718;DHT22;13574;52.040;5.692;2023-03-21T02:56:55;13.30;99.90
25718;DHT22;13574;52.040;5.692;2023-03-21T02:59:23;13.40;99.90
25718;DHT22;13574;52.040;5.692;2023-03-21T03:01:52;13.40;99.90
25718;DHT22;13574;52.040;5.692;2023-03-21T03:04:22;13.20;99.90
25718;DHT22;13574;52.040;5.692;2023-03-21T03:12:04;13.60;99.90
25718;DHT22;13574;52.040;5.692;2023-03-21T03:14:55;13.50;99.90
25718;DHT22;13574;52.040;5.692;2023-03-21T03:17:53;13.60;99.90
25718;DHT22;13574;52.040;5.692;2023-03-21T03:26:28;13.40;99.90
25718;DHT22;13574;52.040;5.692;2023-03-21T03:28:59;13.40;99.90
25718;DHT22;13574;52.040;5.692;2023-03-21T03:31:33;13.50;99.90
25718;DHT22;13574;52.040;5.692;2023-03-21T03:34:09;13.50;99.90
25718;DHT22;13574;52.040;5.692;2023-03-21T03:36:42;13.40;99.90
25718;DHT22;13574;52.040;5.692;2023-03-21T03:39:11;13.60;99.90
25718;DHT22;13574;52.040;5.692;2023-03-21T03:42:07;13.50;99.90
25718;DHT22;13574;52.040;5.692;2023-03-21T03:44:31;13.50;99.90
25718;DHT22;13574;52.040;5.692;2023-03-21T03:47:01;13.60;99.90
25718;DHT22;13574;52.040;5.692;2023-03-21T03:49:30;13.50;99.90
25718;DHT22;13574;52.040;5.692;2023-03-21T03:52:03;13.50;99.90
25718;DHT22;13574;52.040;5.692;2023-03-21T03:54:37;13.40;99.90
25718;DHT22;13574;52.040;5.692;2023-03-21T03:57:04;13.30;99.90
25718;DHT22;13574;52.040;5.692;2023-03-21T03:59:34;13.30;99.90
25718;DHT22;13574;52.040;5.692;2023-03-21T04:02:00;13.20;99.90
25718;DHT22;13574;52.040;5.692;2023-03-21T04:04:26;13.00;99.90
25718;DHT22;13574;52.040;5.692;2023-03-21T04:06:54;13.10;99.90
25718;DHT22;13574;52.040;5.692;2023-03-21T04:09:20;13.20;99.90
25718;DHT22;13574;52.040;5.692;2023-03-21T04:11:46;13.00;99.90
25718;DHT22;13574;52.040;5.692;2023-03-21T04:14:12;13.10;99.90
25718;DHT22;13574;52.040;5.692;2023-03-21T04:16:38;13.20;99.90
25718;DHT22;13574;52.040;5.692;2023-03-21T04:19:04;13.20;99.90
25718;DHT22;13574;52.040;5.692;2023-03-21T04:21:29;13.20;99.90
25718;DHT22;13574;52.040;5.692;2023-03-21T04:23:55;13.10;99.90
25718;DHT22;13574;52.040;5.692;2023-03-21T04:26:22;13.30;99.90
25718;DHT22;13574;52.040;5.692;2023-03-21T04:28:49;13.30;99.90
25718;DHT22;13574;52.040;5.692;2023-03-21T04:31:15;13.40;99.90
25718;DHT22;13574;52.040;5.692;2023-03-21T04:33:42;13.50;99.90
25718;DHT22;13574;52.040;5.692;2023-03-21T04:36:08;13.60;99.90
25718;DHT22;13574;52.040;5.692;2023-03-21T04:38:35;13.70;99.90
25718;DHT22;13574;52.040;5.692;2023-03-21T04:41:02;13.60;99.90
25718;DHT22;13574;52.040;5.692;2023-03-21T04:43:28;13.50;99.90
25718;DHT22;13574;52.040;5.692;2023-03-21T04:45:54;13.50;99.90
25718;DHT22;13574;52.040;5.692;2023-03-21T04:48:20;13.50;99.90
25718;DHT22;13574;52.040;5.692;2023-03-21T04:50:49;13.50;99.90
25718;DHT22;13574;52.040;5.692;2023-03-21T04:53:15;13.60;99.90
25718;DHT22;13574;52.040;5.692;2023-03-21T04:55:40;13.50;99.90
25718;DHT22;13574;52.040;5.692;2023-03-21T04:58:06;13.60;99.90
25718;DHT22;13574;52.040;5.692;2023-03-21T05:00:32;13.30;99.90
25718;DHT22;13574;52.040;5.692;2023-03-21T05:03:05;13.40;99.90
25718;DHT22;13574;52.040;5.692;2023-03-21T05:05:36;13.30;99.90
25718;DHT22;13574;52.040;5.692;2023-03-21T05:08:03;13.40;99.90
25718;DHT22;13574;52.040;5.692;2023-03-21T05:10:29;13.50;99.90
25718;DHT22;13574;52.040;5.692;2023-03-21T05:12:54;13.40;99.90
25718;DHT22;13574;52.040;5.692;2023-03-21T05:15:20;13.60;99.90
25718;DHT22;13574;52.040;5.692;2023-03-21T05:17:45;13.60;99.90
25718;DHT22;13574;52.040;5.692;2023-03-21T05:20:13;13.60;99.90
25718;DHT22;13574;52.040;5.692;2023-03-21T05:22:42;13.60;99.90
25718;DHT22;13574;52.040;5.692;2023-03-21T05:25:11;13.60;99.90
25718;DHT22;13574;52.040;5.692;2023-03-21T05:27:37;13.60;99.90
25718;DHT22;13574;52.040;5.692;2023-03-21T05:30:15;13.60;99.90
25718;DHT22;13574;52.040;5.692;2023-03-21T05:32:41;13.60;99.90
25718;DHT22;13574;52.040;5.692;2023-03-21T05:35:08;13.60;99.90
25718;DHT22;13574;52.040;5.692;2023-03-21T05:37:41;13.60;99.90
25718;DHT22;13574;52.040;5.692;2023-03-21T05:40:07;13.60;99.90
25718;DHT22;13574;52.040;5.692;2023-03-21T05:42:33;13.60;99.90
25718;DHT22;13574;52.040;5.692;2023-03-21T05:45:03;13.60;99.90
25718;DHT22;13574;52.040;5.692;2023-03-21T05:47:28;13.50;99.90
25718;DHT22;13574;52.040;5.692;2023-03-21T05:49:54;13.50;99.90
25718;DHT22;13574;52.040;5.692;2023-03-21T05:52:20;13.60;99.90
25718;DHT22;13574;52.040;5.692;2023-03-21T05:54:46;13.60;99.90
25718;DHT22;13574;52.040;5.692;2023-03-21T05:57:11;13.60;99.90
25718;DHT22;13574;52.040;5.692;2023-03-21T05:59:37;13.70;99.90
25718;DHT22;13574;52.040;5.692;2023-03-21T06:02:03;13.70;99.90
25718;DHT22;13574;52.040;5.692;2023-03-21T06:04:29;13.60;99.90
25718;DHT22;13574;52.040;5.692;2023-03-21T06:06:55;13.70;99.90
25718;DHT22;13574;52.040;5.692;2023-03-21T06:09:21;13.80;99.90
25718;DHT22;13574;52.040;5.692;2023-03-21T06:11:50;13.90;99.90
25718;DHT22;13574;52.040;5.692;2023-03-21T06:14:17;13.90;99.90
25718;DHT22;13574;52.040;5.692;2023-03-21T06:16:43;13.90;99.90
25718;DHT22;13574;52.040;5.692;2023-03-21T06:19:08;13.90;99.90
25718;DHT22;13574;52.040;5.692;2023-03-21T06:21:34;13.80;99.90
25718;DHT22;13574;52.040;5.692;2023-03-21T06:24:00;13.80;99.90
25718;DHT22;13574;52.040;5.692;2023-03-21T06:26:26;13.80;99.90
25718;DHT22;13574;52.040;5.692;2023-03-21T06:28:52;13.80;99.90
25718;DHT22;13574;52.040;5.692;2023-03-21T06:31:19;13.90;99.90
25718;DHT22;13574;52.040;5.692;2023-03-21T06:33:49;13.80;99.90
25718;DHT22;13574;52.040;5.692;2023-03-21T06:36:16;13.80;99.90
25718;DHT22;13574;52.040;5.692;2023-03-21T06:38:42;13.90;99.90
25718;DHT22;13574;52.040;5.692;2023-03-21T06:41:08;13.80;99.90
25718;DHT22;13574;52.040;5.692;2023-03-21T06:43:34;13.80;99.90
25718;DHT22;13574;52.040;5.692;2023-03-21T06:46:03;13.90;99.90
25718;DHT22;13574;52.040;5.692;2023-03-21T06:48:30;13.90;99.90
25718;DHT22;13574;52.040;5.692;2023-03-21T06:50:56;13.90;99.90
25718;DHT22;13574;52.040;5.692;2023-03-21T06:53:23;13.90;99.90
25718;DHT22;13574;52.040;5.692;2023-03-21T06:55:52;13.90;99.90
25718;DHT22;13574;52.040;5.692;2023-03-21T06:58:18;13.90;99.90
25718;DHT22;13574;52.040;5.692;2023-03-21T07:00:43;14.00;99.90
25718;DHT22;13574;52.040;5.692;2023-03-21T07:03:10;14.00;99.90
25718;DHT22;13574;52.040;5.692;2023-03-21T07:05:36;14.10;99.90
25718;DHT22;13574;52.040;5.692;2023-03-21T07:08:02;13.90;99.90
25718;DHT22;13574;52.040;5.692;2023-03-21T07:10:28;13.90;99.90
25718;DHT22;13574;52.040;5.692;2023-03-21T07:12:54;13.80;99.90
25718;DHT22;13574;52.040;5.692;2023-03-21T07:15:19;14.00;99.90
25718;DHT22;13574;52.040;5.692;2023-03-21T07:17:45;14.00;99.90
25718;DHT22;13574;52.040;5.692;2023-03-21T07:20:11;14.10;99.90
25718;DHT22;13574;52.040;5.692;2023-03-21T07:22:37;14.20;99.90
25718;DHT22;13574;52.040;5.692;2023-03-21T07:25:03;14.10;99.90
25718;DHT22;13574;52.040;5.692;2023-03-21T07:27:29;14.30;99.90
25718;DHT22;13574;52.040;5.692;2023-03-21T07:29:55;14.30;99.90
25718;DHT22;13574;52.040;5.692;2023-03-21T07:32:21;14.20;99.90
25718;DHT22;13574;52.040;5.692;2023-03-21T07:34:47;14.20;99.90
25718;DHT22;13574;52.040;5.692;2023-03-21T07:37:12;14.20;99.90
25718;DHT22;13574;52.040;5.692;2023-03-21T07:39:38;14.00;99.90
25718;DHT22;13574;52.040;5.692;2023-03-21T07:42:03;13.90;99.90
25718;DHT22;13574;52.040;5.692;2023-03-21T07:44:29;13.80;99.90
25718;DHT22;13574;52.040;5.692;2023-03-21T07:46:55;13.80;99.90
25718;DHT22;13574;52.040;5.692;2023-03-21T07:49:21;13.80;99.90
25718;DHT22;13574;52.040;5.692;2023-03-21T07:51:46;13.80;99.90
25718;DHT22;13574;52.040;5.692;2023-03-21T07:54:12;13.80;99.90
25718;DHT22;13574;52.040;5.692;2023-03-21T07:56:38;13.90;99.90
25718;DHT22;13574;52.040;5.692;2023-03-21T07:59:03;14.00;99.90
25718;DHT22;13574;52.040;5.692;2023-03-21T08:01:30;14.00;99.90
25718;DHT22;13574;52.040;5.692;2023-03-21T08:03:56;14.00;99.90
25718;DHT22;13574;52.040;5.692;2023-03-21T08:06:26;13.80;99.90
25718;DHT22;13574;52.040;5.692;2023-03-21T08:08:52;13.70;99.90
25718;DHT22;13574;52.040;5.692;2023-03-21T08:11:18;13.80;99.90
25718;DHT22;13574;52.040;5.692;2023-03-21T08:13:45;14.00;99.90
25718;DHT22;13574;52.040;5.692;2023-03-21T08:16:11;14.00;99.90
25718;DHT22;13574;52.040;5.692;2023-03-21T08:18:37;14.10;99.90
25718;DHT22;13574;52.040;5.692;2023-03-21T08:21:02;14.10;99.90
25718;DHT22;13574;52.040;5.692;2023-03-21T08:23:28;14.10;99.90
25718;DHT22;13574;52.040;5.692;2023-03-21T08:25:54;14.10;99.90
25718;DHT22;13574;52.040;5.692;2023-03-21T08:28:21;14.20;99.90
25718;DHT22;13574;52.040;5.692;2023-03-21T08:30:48;14.30;99.90
25718;DHT22;13574;52.040;5.692;2023-03-21T08:33:14;14.40;99.90
25718;DHT22;13574;52.040;5.692;2023-03-21T08:35:39;14.40;99.90
25718;DHT22;13574;52.040;5.692;2023-03-21T08:38:06;14.30;99.90
25718;DHT22;13574;52.040;5.692;2023-03-21T08:40:32;14.30;99.90
25718;DHT22;13574;52.040;5.692;2023-03-21T08:42:58;14.40;99.90
25718;DHT22;13574;52.040;5.692;2023-03-21T08:45:24;14.30;99.90
25718;DHT22;13574;52.040;5.692;2023-03-21T08:47:51;14.40;99.90
25718;DHT22;13574;52.040;5.692;2023-03-21T08:50:20;14.20;99.90
25718;DHT22;13574;52.040;5.692;2023-03-21T08:52:46;14.20;99.90
25718;DHT22;13574;52.040;5.692;2023-03-21T08:55:13;14.20;99.90
25718;DHT22;13574;52.040;5.692;2023-03-21T08:57:39;14.20;99.90
25718;DHT22;13574;52.040;5.692;2023-03-21T09:00:06;14.20;99.90
25718;DHT22;13574;52.040;5.692;2023-03-21T09:02:37;14.40;99.90
25718;DHT22;13574;52.040;5.692;2023-03-21T09:05:03;14.40;99.90
25718;DHT22;13574;52.040;5.692;2023-03-21T09:07:30;14.50;99.90
25718;DHT22;13574;52.040;5.692;2023-03-21T09:09:58;14.70;99.90
25718;DHT22;13574;52.040;5.692;2023-03-21T09:12:24;14.80;99.90
25718;DHT22;13574;52.040;5.692;2023-03-21T09:14:50;14.80;99.90
25718;DHT22;13574;52.040;5.692;2023-03-21T09:17:17;14.80;99.90
25718;DHT22;13574;52.040;5.692;2023-03-21T09:19:43;15.10;99.90
25718;DHT22;13574;52.040;5.692;2023-03-21T09:22:11;15.20;99.90
25718;DHT22;13574;52.040;5.692;2023-03-21T09:24:45;15.10;99.90
25718;DHT22;13574;52.040;5.692;2023-03-21T09:27:12;15.20;99.90
25718;DHT22;13574;52.040;5.692;2023-03-21T09:29:39;15.40;99.90
25718;DHT22;13574;52.040;5.692;2023-03-21T09:32:08;15.30;99.90
25718;DHT22;13574;52.040;5.692;2023-03-21T09:34:33;15.20;99.90
25718;DHT22;13574;52.040;5.692;2023-03-21T09:37:01;15.20;99.90
25718;DHT22;13574;52.040;5.692;2023-03-21T09:39:28;15.50;99.90
25718;DHT22;13574;52.040;5.692;2023-03-21T09:44:44;15.30;99.90
25718;DHT22;13574;52.040;5.692;2023-03-21T09:47:21;15.20;99.90
25718;DHT22;13574;52.040;5.692;2023-03-21T09:49:59;15.20;99.90
25718;DHT22;13574;52.040;5.692;2023-03-21T09:52:41;15.20;99.90
25718;DHT22;13574;52.040;5.692;2023-03-21T09:55:16;14.90;99.90
25718;DHT22;13574;52.040;5.692;2023-03-21T09:57:44;15.10;99.90
25718;DHT22;13574;52.040;5.692;2023-03-21T10:00:16;15.30;99.90
25718;DHT22;13574;52.040;5.692;2023-03-21T10:02:48;15.40;99.90
25718;DHT22;13574;52.040;5.692;2023-03-21T10:05:18;15.30;99.90
25718;DHT22;13574;52.040;5.692;2023-03-21T10:07:53;15.20;99.90
25718;DHT22;13574;52.040;5.692;2023-03-21T10:10:27;15.30;99.90
25718;DHT22;13574;52.040;5.692;2023-03-21T10:12:55;15.40;99.90
25718;DHT22;13574;52.040;5.692;2023-03-21T10:15:23;15.50;99.90
25718;DHT22;13574;52.040;5.692;2023-03-21T10:18:02;15.50;99.90
25718;DHT22;13574;52.040;5.692;2023-03-21T10:20:36;15.70;99.90
25718;DHT22;13574;52.040;5.692;2023-03-21T10:23:12;15.90;99.90
25718;DHT22;13574;52.040;5.692;2023-03-21T10:25:45;15.90;99.90
25718;DHT22;13574;52.040;5.692;2023-03-21T10:28:19;15.90;99.90
25718;DHT22;13574;52.040;5.692;2023-03-21T10:30:49;15.70;99.90
25718;DHT22;13574;52.040;5.692;2023-03-21T10:33:28;16.10;99.90
25718;DHT22;13574;52.040;5.692;2023-03-21T10:36:02;16.00;99.90
25718;DHT22;13574;52.040;5.692;2023-03-21T10:38:29;15.80;99.90
25718;DHT22;13574;52.040;5.692;2023-03-21T10:40:55;16.00;99.90
25718;DHT22;13574;52.040;5.692;2023-03-21T10:45:58;16.10;99.90
25718;DHT22;13574;52.040;5.692;2023-03-21T10:48:35;15.90;99.90
25718;DHT22;13574;52.040;5.692;2023-03-21T10:51:00;15.90;99.90
25718;DHT22;13574;52.040;5.692;2023-03-21T10:53:30;16.10;99.90
25718;DHT22;13574;52.040;5.692;2023-03-21T10:55:59;16.10;99.90
25718;DHT22;13574;52.040;5.692;2023-03-21T10:58:30;16.50;99.90
25718;DHT22;13574;52.040;5.692;2023-03-21T11:01:04;16.50;99.90
25718;DHT22;13574;52.040;5.692;2023-03-21T11:03:36;16.70;99.90
25718;DHT22;13574;52.040;5.692;2023-03-21T11:09:11;17.30;99.90
25718;DHT22;13574;52.040;5.692;2023-03-21T11:12:02;17.40;99.90
25718;DHT22;13574;52.040;5.692;2023-03-21T11:14:46;17.00;99.90
25718;DHT22;13574;52.040;5.692;2023-03-21T11:19:48;17.10;99.90
25718;DHT22;13574;52.040;5.692;2023-03-21T11:22:14;17.00;99.90
25718;DHT22;13574;52.040;5.692;2023-03-21T11:24:42;17.10;99.90
25718;DHT22;13574;52.040;5.692;2023-03-21T11:27:10;17.10;99.90
25718;DHT22;13574;52.040;5.692;2023-03-21T11:29:37;17.20;99.90
25718;DHT22;13574;52.040;5.692;2023-03-21T11:32:31;17.10;99.90
25718;DHT22;13574;52.040;5.692;2023-03-21T11:37:33;17.10;99.90
25718;DHT22;13574;52.040;5.692;2023-03-21T11:40:24;16.80;99.90
25718;DHT22;13574;52.040;5.692;2023-03-21T11:42:58;16.90;99.90
25718;DHT22;13574;52.040;5.692;2023-03-21T11:45:29;16.90;99.90
25718;DHT22;13574;52.040;5.692;2023-03-21T11:47:57;17.30;99.90
25718;DHT22;13574;52.040;5.692;2023-03-21T11:50:45;17.20;99.90
25718;DHT22;13574;52.040;5.692;2023-03-21T11:56:27;17.30;99.90
25718;DHT22;13574;52.040;5.692;2023-03-21T11:59:31;17.10;99.90
25718;DHT22;13574;52.040;5.692;2023-03-21T12:04:53;17.10;99.90
25718;DHT22;13574;52.040;5.692;2023-03-21T12:13:00;16.90;99.90
25718;DHT22;13574;52.040;5.692;2023-03-21T12:15:37;17.30;99.90
25718;DHT22;13574;52.040;5.692;2023-03-21T12:18:36;17.60;99.90
25718;DHT22;13574;52.040;5.692;2023-03-21T12:24:31;18.10;99.90
25718;DHT22;13574;52.040;5.692;2023-03-21T12:27:38;17.80;99.90
25718;DHT22;13574;52.040;5.692;2023-03-21T12:30:37;17.80;99.90
25718;DHT22;13574;52.040;5.692;2023-03-21T12:33:34;18.00;99.90
25718;DHT22;13574;52.040;5.692;2023-03-21T12:36:24;18.00;99.90
25718;DHT22;13574;52.040;5.692;2023-03-21T12:39:29;17.80;99.90
25718;DHT22;13574;52.040;5.692;2023-03-21T12:42:06;17.70;99.90
25718;DHT22;13574;52.040;5.692;2023-03-21T12:44:38;17.30;99.90
25718;DHT22;13574;52.040;5.692;2023-03-21T12:47:30;17.40;99.90
25718;DHT22;13574;52.040;5.692;2023-03-21T12:50:16;17.50;99.90
25718;DHT22;13574;52.040;5.692;2023-03-21T12:52:51;17.70;99.90
25718;DHT22;13574;52.040;5.692;2023-03-21T12:55:26;17.80;99.90
25718;DHT22;13574;52.040;5.692;2023-03-21T12:58:15;18.00;99.90
25718;DHT22;13574;52.040;5.692;2023-03-21T13:01:02;18.20;99.90
25718;DHT22;13574;52.040;5.692;2023-03-21T13:03:35;17.90;99.90
25718;DHT22;13574;52.040;5.692;2023-03-21T13:06:05;17.70;99.90
25718;DHT22;13574;52.040;5.692;2023-03-21T13:11:03;17.70;99.90
25718;DHT22;13574;52.040;5.692;2023-03-21T13:13:41;17.70;99.90
25718;DHT22;13574;52.040;5.692;2023-03-21T13:27:31;18.20;99.90
25718;DHT22;13574;52.040;5.692;2023-03-21T13:30:00;18.20;99.90
25718;DHT22;13574;52.040;5.692;2023-03-21T13:32:35;18.30;99.90
25718;DHT22;13574;52.040;5.692;2023-03-21T13:37:41;18.40;99.90
25718;DHT22;13574;52.040;5.692;2023-03-21T13:46:14;18.70;99.90
25718;DHT22;13574;52.040;5.692;2023-03-21T13:51:07;19.00;99.90
25718;DHT22;13574;52.040;5.692;2023-03-21T13:53:59;19.10;99.90
25718;DHT22;13574;52.040;5.692;2023-03-21T13:56:25;19.10;99.90
25718;DHT22;13574;52.040;5.692;2023-03-21T13:58:53;18.90;99.90
25718;DHT22;13574;52.040;5.692;2023-03-21T14:01:35;18.80;99.90
25718;DHT22;13574;52.040;5.692;2023-03-21T14:04:25;18.90;99.90
25718;DHT22;13574;52.040;5.692;2023-03-21T14:07:06;18.70;99.90
25718;DHT22;13574;52.040;5.692;2023-03-21T14:09:43;18.40;99.90
25718;DHT22;13574;52.040;5.692;2023-03-21T14:12:14;18.50;99.90
25718;DHT22;13574;52.040;5.692;2023-03-21T14:14:47;18.70;99.90
25718;DHT22;13574;52.040;5.692;2023-03-21T14:17:26;18.80;99.90
25718;DHT22;13574;52.040;5.692;2023-03-21T14:19:58;19.00;99.90
25718;DHT22;13574;52.040;5.692;2023-03-21T14:22:25;19.10;99.90
25718;DHT22;13574;52.040;5.692;2023-03-21T14:24:56;19.50;99.90
25718;DHT22;13574;52.040;5.692;2023-03-21T14:27:27;19.30;99.90
25718;DHT22;13574;52.040;5.692;2023-03-21T14:29:54;18.90;99.90
25718;DHT22;13574;52.040;5.692;2023-03-21T14:32:25;18.70;99.90
25718;DHT22;13574;52.040;5.692;2023-03-21T14:34:53;18.70;99.90
25718;DHT22;13574;52.040;5.692;2023-03-21T14:37:28;18.50;99.90
25718;DHT22;13574;52.040;5.692;2023-03-21T14:40:00;18.50;99.90
25718;DHT22;13574;52.040;5.692;2023-03-21T14:42:27;18.50;99.90
25718;DHT22;13574;52.040;5.692;2023-03-21T14:44:52;18.50;99.90
25718;DHT22;13574;52.040;5.692;2023-03-21T14:47:26;18.70;99.90
25718;DHT22;13574;52.040;5.692;2023-03-21T14:49:52;18.60;99.90
25718;DHT22;13574;52.040;5.692;2023-03-21T14:52:36;18.60;99.90
25718;DHT22;13574;52.040;5.692;2023-03-21T14:55:12;18.30;99.90
25718;DHT22;13574;52.040;5.692;2023-03-21T14:57:39;18.10;99.90
25718;DHT22;13574;52.040;5.692;2023-03-21T15:00:07;17.80;99.90
25718;DHT22;13574;52.040;5.692;2023-03-21T15:02:39;17.90;99.90
25718;DHT22;13574;52.040;5.692;2023-03-21T15:05:30;18.10;99.90
25718;DHT22;13574;52.040;5.692;2023-03-21T15:07:57;18.10;99.90
25718;DHT22;13574;52.040;5.692;2023-03-21T15:10:24;18.20;99.90
25718;DHT22;13574;52.040;5.692;2023-03-21T15:12:53;18.30;99.90
25718;DHT22;13574;52.040;5.692;2023-03-21T15:15:20;18.40;99.90
25718;DHT22;13574;52.040;5.692;2023-03-21T15:17:48;18.10;99.90
25718;DHT22;13574;52.040;5.692;2023-03-21T15:20:17;18.00;99.90
25718;DHT22;13574;52.040;5.692;2023-03-21T15:22:57;17.80;99.90
25718;DHT22;13574;52.040;5.692;2023-03-21T15:25:29;18.00;99.90
25718;DHT22;13574;52.040;5.692;2023-03-21T15:27:55;17.80;99.90
25718;DHT22;13574;52.040;5.692;2023-03-21T15:30:29;18.00;99.90
25718;DHT22;13574;52.040;5.692;2023-03-21T15:32:56;18.10;99.90
25718;DHT22;13574;52.040;5.692;2023-03-21T15:35:38;18.00;99.90
25718;DHT22;13574;52.040;5.692;2023-03-21T15:38:05;18.00;99.90
25718;DHT22;13574;52.040;5.692;2023-03-21T15:40:32;17.80;99.90
25718;DHT22;13574;52.040;5.692;2023-03-21T15:43:15;17.90;99.90
25718;DHT22;13574;52.040;5.692;2023-03-21T15:45:55;18.00;99.90
25718;DHT22;13574;52.040;5.692;2023-03-21T15:48:27;17.90;99.90
25718;DHT22;13574;52.040;5.692;2023-03-21T15:53:24;17.90;99.90
25718;DHT22;13574;52.040;5.692;2023-03-21T15:55:57;17.80;99.90
25718;DHT22;13574;52.040;5.692;2023-03-21T15:58:33;17.60;99.90
25718;DHT22;13574;52.040;5.692;2023-03-21T16:01:05;17.30;99.90
25718;DHT22;13574;52.040;5.692;2023-03-21T16:03:36;17.40;99.90
25718;DHT22;13574;52.040;5.692;2023-03-21T16:08:48;17.40;99.90
25718;DHT22;13574;52.040;5.692;2023-03-21T16:11:28;17.60;99.90
25718;DHT22;13574;52.040;5.692;2023-03-21T16:14:01;17.40;99.90
25718;DHT22;13574;52.040;5.692;2023-03-21T16:16:28;17.30;99.90
25718;DHT22;13574;52.040;5.692;2023-03-21T16:18:55;17.30;99.90
25718;DHT22;13574;52.040;5.692;2023-03-21T16:21:24;17.10;99.90
25718;DHT22;13574;52.040;5.692;2023-03-21T16:23:51;17.30;99.90
25718;DHT22;13574;52.040;5.692;2023-03-21T16:26:25;17.50;99.90
25718;DHT22;13574;52.040;5.692;2023-03-21T16:28:52;17.60;99.90
25718;DHT22;13574;52.040;5.692;2023-03-21T16:31:20;17.50;99.90
25718;DHT22;13574;52.040;5.692;2023-03-21T16:33:46;17.30;99.90
25718;DHT22;13574;52.040;5.692;2023-03-21T16:36:36;17.40;99.90
25718;DHT22;13574;52.040;5.692;2023-03-21T16:39:14;17.40;99.90
25718;DHT22;13574;52.040;5.692;2023-03-21T16:41:41;17.10;99.90
25718;DHT22;13574;52.040;5.692;2023-03-21T16:44:07;17.10;99.90
25718;DHT22;13574;52.040;5.692;2023-03-21T16:46:33;17.20;99.90
25718;DHT22;13574;52.040;5.692;2023-03-21T16:48:58;17.20;99.90
25718;DHT22;13574;52.040;5.692;2023-03-21T16:51:29;17.10;99.90
25718;DHT22;13574;52.040;5.692;2023-03-21T16:53:56;16.70;99.90
25718;DHT22;13574;52.040;5.692;2023-03-21T16:56:25;16.50;99.90
25718;DHT22;13574;52.040;5.692;2023-03-21T16:58:54;16.40;99.90
25718;DHT22;13574;52.040;5.692;2023-03-21T17:01:21;16.50;99.90
25718;DHT22;13574;52.040;5.692;2023-03-21T17:03:50;16.50;99.90
25718;DHT22;13574;52.040;5.692;2023-03-21T17:06:18;16.60;99.90
25718;DHT22;13574;52.040;5.692;2023-03-21T17:08:44;16.40;99.90
25718;DHT22;13574;52.040;5.692;2023-03-21T17:11:12;16.50;99.90
25718;DHT22;13574;52.040;5.692;2023-03-21T17:13:41;16.50;99.90
25718;DHT22;13574;52.040;5.692;2023-03-21T17:16:13;16.60;99.90
25718;DHT22;13574;52.040;5.692;2023-03-21T17:18:39;16.50;99.90
25718;DHT22;13574;52.040;5.692;2023-03-21T17:21:25;16.40;99.90
25718;DHT22;13574;52.040;5.692;2023-03-21T17:23:53;16.40;99.90
25718;DHT22;13574;52.040;5.692;2023-03-21T17:26:22;16.20;99.90